createdAt,value
2022-09-11T00:01:07.123Z,1.25
2022-09-11T00:04:09.833Z,1.50
2022-09-11T00:07:11.312Z,1.40
2022-09-11T00:10:12.843Z,1.63
2022-09-11T00:13:21.165Z,1.30
2022-09-11T00:16:22.699Z,1.30
2022-09-11T00:19:24.254Z,1.48
2022-09-11T00:22:27.171Z,1.20
2022-09-11T00:25:28.662Z,1.40
2022-09-11T00:28:30.741Z,1.40
2022-09-11T00:31:32.636Z,1.50
2022-09-11T00:34:34.428Z,1.20
2022-09-11T00:37:36.192Z,1.40
2022-09-11T00:40:46.313Z,1.30
2022-09-11T00:43:55.302Z,1.42
2022-09-11T00:46:58.312Z,1.40
2022-09-11T00:50:13.415Z,1.30
2022-09-11T00:53:17.811Z,1.30
2022-09-11T00:56:21.537Z,1.40
2022-09-11T00:59:26.934Z,1.40
2022-09-11T01:02:31.393Z,1.50
2022-09-11T01:05:36.888Z,1.60
2022-09-11T01:08:39.060Z,1.60
2022-09-11T01:12:12.624Z,1.48
2022-09-11T01:15:37.545Z,1.42
2022-09-11T01:18:48.698Z,1.55
2022-09-11T01:22:15.042Z,1.48
2022-09-11T01:25:41.616Z,1.65
2022-09-11T01:28:54.693Z,1.60
2022-09-11T01:31:59.255Z,1.60
2022-09-11T01:35:12.764Z,1.50
2022-09-11T01:38:24.155Z,1.60
2022-09-11T01:41:41.249Z,1.63
2022-09-11T01:44:51.628Z,1.48
2022-09-11T01:47:55.281Z,1.67
2022-09-11T01:50:59.872Z,1.85
2022-09-11T01:54:04.352Z,1.60
2022-09-11T01:57:10.709Z,1.70
2022-09-11T02:00:13.752Z,1.83
2022-09-11T02:03:27.167Z,2.20
2022-09-11T02:06:35.891Z,2.25
2022-09-11T02:09:41.960Z,2.58
2022-09-11T02:12:52.599Z,2.20
2022-09-11T02:15:59.846Z,2.75
